Time;durP1;ratioP1;P1;durP2;ratioP2;P2;SDS_P1;SDS_P2;PMS_P1;PMS_P2;Temp;Humidity;BMP_temperature;BMP_pressure;BME280_temperature;BME280_humidity;BME280_pressure;Samples;Min_cycle;Max_cycle;Signal;HPM_P1;HPM_P2
2022/05/25 00:00:10;;;;;;;4.63;4.22;;;11.00;99.90;;;;;;5005565;28;20052;-83
2022/05/25 00:02:36;;;;;;;6.95;3.92;;;11.00;99.90;;;;;;4988931;28;20069;-83
2022/05/25 00:05:02;;;;;;;6.07;4.15;;;10.90;99.90;;;;;;5005174;28;21438;-83
2022/05/25 00:07:28;;;;;;;6.32;4.47;;;10.90;99.90;;;;;;5003084;28;20048;-83
2022/05/25 00:09:53;;;;;;;6.57;4.05;;;10.90;99.90;;;;;;5005984;28;20042;-83
2022/05/25 00:12:20;;;;;;;6.93;4.25;;;10.90;99.90;;;;;;4988616;28;20092;-83
2022/05/25 00:14:47;;;;;;;8.32;4.45;;;11.00;99.90;;;;;;5003344;28;20073;-83
2022/05/25 00:17:12;;;;;;;9.55;5.28;;;10.80;99.90;;;;;;5004228;28;20069;-83
2022/05/25 00:22:22;;;;;;;;;;;10.80;99.90;;;;;;5021040;28;20542;-83
2022/05/25 00:24:47;;;;;;;5.22;4.55;;;10.70;99.90;;;;;;5008059;28;19960;-83
2022/05/25 00:27:13;;;;;;;6.22;4.47;;;10.70;99.90;;;;;;5008750;28;20065;-83
2022/05/25 00:29:39;;;;;;;7.05;4.68;;;10.60;99.90;;;;;;5007915;28;20532;-83
2022/05/25 00:32:06;;;;;;;6.20;4.70;;;10.60;99.90;;;;;;5007456;28;20049;-83
2022/05/25 00:34:32;;;;;;;6.60;4.88;;;10.60;99.90;;;;;;5008602;28;20435;-83
2022/05/25 00:36:57;;;;;;;6.60;4.82;;;10.50;99.90;;;;;;5009259;28;20033;-83
2022/05/25 00:39:23;;;;;;;7.60;4.80;;;10.50;99.90;;;;;;5009045;28;20095;-83
2022/05/25 00:41:52;;;;;;;6.43;4.72;;;10.50;99.90;;;;;;4991923;28;20837;-83
2022/05/25 00:44:18;;;;;;;8.25;5.13;;;10.50;99.90;;;;;;5002129;28;20057;-83
2022/05/25 00:46:45;;;;;;;7.45;4.93;;;10.50;99.90;;;;;;5002555;28;20133;-83
2022/05/25 00:49:14;;;;;;;6.78;5.20;;;10.40;99.90;;;;;;4992499;28;20125;-83
2022/05/25 00:51:54;;;;;;;5.88;5.13;;;10.40;99.90;;;;;;5008360;28;20052;-83
2022/05/25 00:54:42;;;;;;;8.23;5.78;;;10.30;99.90;;;;;;5008411;28;20504;-83
2022/05/25 00:57:15;;;;;;;7.57;5.13;;;10.30;99.90;;;;;;5007931;28;20045;-83
2022/05/25 00:59:53;;;;;;;9.20;5.43;;;10.20;99.90;;;;;;5023756;28;20033;-82
2022/05/25 01:02:19;;;;;;;6.50;5.47;;;10.20;99.90;;;;;;5006396;28;20069;-82
2022/05/25 01:04:47;;;;;;;7.03;5.20;;;10.20;99.90;;;;;;5015854;28;20046;-83
2022/05/25 01:07:50;;;;;;;6.90;5.45;;;10.20;99.90;;;;;;5005140;28;20041;-83
2022/05/25 01:10:46;;;;;;;8.55;5.78;;;10.20;99.90;;;;;;5021819;28;20041;-82
2022/05/25 01:13:37;;;;;;;6.50;5.35;;;10.20;99.90;;;;;;5008031;28;20053;-83
2022/05/25 01:16:13;;;;;;;7.22;5.63;;;10.10;99.90;;;;;;5010277;28;20121;-83
2022/05/25 01:18:55;;;;;;;9.77;5.88;;;10.10;99.90;;;;;;5007213;28;20152;-83
2022/05/25 01:21:25;;;;;;;6.45;5.18;;;10.10;99.90;;;;;;5008133;28;20496;-82
2022/05/25 01:24:14;;;;;;;8.43;5.72;;;10.00;99.90;;;;;;5005924;28;20392;-82
2022/05/25 01:27:12;;;;;;;8.35;6.18;;;10.10;99.90;;;;;;5008677;28;20056;-83
2022/05/25 01:29:55;;;;;;;7.22;5.82;;;10.00;99.90;;;;;;5008720;28;20407;-83
2022/05/25 01:32:35;;;;;;;7.68;6.57;;;10.00;99.90;;;;;;5007027;28;20127;-83
2022/05/25 01:35:20;;;;;;;7.20;6.50;;;10.00;99.90;;;;;;5005323;28;20419;-84
2022/05/25 01:37:58;;;;;;;8.63;6.82;;;9.90;99.90;;;;;;5006895;28;20455;-84
2022/05/25 01:40:50;;;;;;;8.23;6.93;;;9.90;99.90;;;;;;5008427;28;20640;-84
2022/05/25 01:43:38;;;;;;;8.32;6.97;;;9.80;99.90;;;;;;4991380;28;20046;-84
2022/05/25 01:46:31;;;;;;;12.45;6.53;;;9.80;99.90;;;;;;5006528;28;20038;-83
2022/05/25 01:48:57;;;;;;;9.13;7.03;;;9.80;99.90;;;;;;5007248;28;20030;-84
2022/05/25 01:51:38;;;;;;;8.40;6.78;;;9.80;99.90;;;;;;5007900;28;20570;-84
2022/05/25 01:54:06;;;;;;;9.88;7.35;;;9.80;99.90;;;;;;5005457;28;20042;-83
2022/05/25 01:56:35;;;;;;;9.00;7.18;;;9.70;99.90;;;;;;5006246;28;20551;-84
2022/05/25 01:59:03;;;;;;;8.85;7.82;;;9.70;99.90;;;;;;5007158;28;20069;-83
2022/05/25 02:01:30;;;;;;;9.63;7.70;;;9.80;99.90;;;;;;4990365;28;20045;-83
2022/05/25 02:06:49;;;;;;;9.65;8.00;;;9.70;99.90;;;;;;5005982;28;20180;-83
2022/05/25 02:09:19;;;;;;;8.95;7.85;;;9.70;99.90;;;;;;5006501;28;20045;-83
2022/05/25 02:11:50;;;;;;;8.88;7.93;;;9.60;99.90;;;;;;5004545;28;20049;-83
2022/05/25 02:14:34;;;;;;;10.13;8.05;;;9.60;99.90;;;;;;5006865;28;20069;-84
2022/05/25 02:17:02;;;;;;;;;;;9.60;99.90;;;;;;5006903;28;20038;-83
2022/05/25 02:19:38;;;;;;;10.18;8.15;;;9.60;99.90;;;;;;5007029;28;20375;-83
2022/05/25 02:22:18;;;;;;;10.93;8.85;;;9.60;99.90;;;;;;5007297;28;20994;-84
2022/05/25 02:25:09;;;;;;;10.93;8.18;;;9.60;99.90;;;;;;5006064;28;20033;-83
2022/05/25 02:27:46;;;;;;;11.85;8.85;;;9.60;99.90;;;;;;5007207;28;20038;-83
2022/05/25 02:30:19;;;;;;;10.55;8.95;;;9.60;99.90;;;;;;4990656;28;20046;-83
2022/05/25 02:32:48;;;;;;;10.85;8.80;;;9.60;99.90;;;;;;4988427;28;20044;-83
2022/05/25 02:35:16;;;;;;;10.68;8.43;;;9.50;99.90;;;;;;5006164;28;20050;-83
2022/05/25 02:37:43;;;;;;;11.60;8.80;;;9.50;99.90;;;;;;5004862;28;20526;-84
2022/05/25 02:40:11;;;;;;;9.93;8.93;;;9.50;99.90;;;;;;5007649;28;20427;-83
2022/05/25 02:42:39;;;;;;;11.25;9.57;;;9.50;99.90;;;;;;5006250;28;20030;-83
2022/05/25 02:45:05;;;;;;;15.25;9.77;;;9.50;99.90;;;;;;4988729;28;20415;-83
2022/05/25 02:47:31;;;;;;;11.63;9.77;;;9.50;99.90;;;;;;5006455;28;20042;-83
2022/05/25 02:49:56;;;;;;;12.88;10.02;;;9.50;99.90;;;;;;4990228;28;20522;-83
2022/05/25 02:52:23;;;;;;;12.82;9.68;;;9.50;99.90;;;;;;4989361;28;20049;-83
2022/05/25 02:54:48;;;;;;;12.43;10.18;;;9.50;99.90;;;;;;5004879;28;20124;-84
2022/05/25 02:57:14;;;;;;;14.55;10.27;;;9.50;99.90;;;;;;5004803;28;20034;-84
2022/05/25 02:59:39;;;;;;;13.23;10.07;;;9.40;99.90;;;;;;5005968;28;20038;-83
2022/05/25 03:02:05;;;;;;;13.45;9.50;;;9.50;99.90;;;;;;5005449;28;20080;-84
2022/05/25 03:04:31;;;;;;;12.23;10.32;;;9.50;99.90;;;;;;5006268;28;20045;-84
2022/05/25 03:06:57;;;;;;;12.50;10.27;;;9.50;99.90;;;;;;5004229;28;20046;-83
2022/05/25 03:09:23;;;;;;;12.98;10.30;;;9.40;99.90;;;;;;5005055;28;20046;-84
2022/05/25 03:11:48;;;;;;;13.60;10.77;;;9.40;99.90;;;;;;5004393;28;20091;-84
2022/05/25 03:14:14;;;;;;;12.65;10.13;;;9.40;99.90;;;;;;5005977;28;20042;-83
2022/05/25 03:16:39;;;;;;;14.80;10.93;;;9.50;99.90;;;;;;5005474;28;20042;-83
2022/05/25 03:19:06;;;;;;;14.52;10.30;;;9.40;99.90;;;;;;5006188;28;20042;-84
2022/05/25 03:21:32;;;;;;;13.90;11.18;;;9.50;99.90;;;;;;5020072;28;20088;-83
2022/05/25 03:23:58;;;;;;;12.20;10.85;;;9.40;99.90;;;;;;5005622;28;20037;-84
2022/05/25 03:26:24;;;;;;;13.75;11.20;;;9.40;99.90;;;;;;4991939;28;20049;-83
2022/05/25 03:28:50;;;;;;;14.30;10.40;;;9.50;99.90;;;;;;5005674;28;20129;-84
2022/05/25 03:31:16;;;;;;;14.60;10.18;;;9.40;99.90;;;;;;5008521;28;20496;-83
2022/05/25 03:33:42;;;;;;;14.80;11.00;;;9.40;99.90;;;;;;4989236;28;20038;-83
2022/05/25 03:36:07;;;;;;;16.77;11.32;;;9.40;99.90;;;;;;4988379;28;20037;-83
2022/05/25 03:38:33;;;;;;;17.05;12.00;;;9.50;99.90;;;;;;5004290;28;20160;-84
2022/05/25 03:41:00;;;;;;;15.18;10.63;;;9.50;99.90;;;;;;5006255;28;20034;-83
2022/05/25 03:43:31;;;;;;;13.88;10.98;;;9.50;99.90;;;;;;5004842;28;20044;-84
2022/05/25 03:45:56;;;;;;;11.50;9.90;;;9.50;99.90;;;;;;4988074;28;20029;-83
2022/05/25 03:48:22;;;;;;;14.13;11.02;;;9.50;99.90;;;;;;4986835;28;20083;-84
2022/05/25 03:50:49;;;;;;;13.18;10.50;;;9.50;99.90;;;;;;5004650;28;20042;-84
2022/05/25 03:53:15;;;;;;;13.57;10.77;;;9.50;99.90;;;;;;5019821;28;20045;-84
2022/05/25 03:55:42;;;;;;;12.05;10.63;;;9.50;99.90;;;;;;4999886;28;20072;-84
2022/05/25 03:58:09;;;;;;;13.23;11.00;;;9.60;99.90;;;;;;4985847;28;20030;-84
2022/05/25 04:00:35;;;;;;;14.18;11.05;;;9.60;99.90;;;;;;4988561;28;20038;-82
2022/05/25 04:03:02;;;;;;;14.60;11.07;;;9.50;99.90;;;;;;5003136;28;20030;-83
2022/05/25 04:05:29;;;;;;;14.27;11.25;;;9.60;99.90;;;;;;4988028;28;20503;-84
2022/05/25 04:07:56;;;;;;;15.18;11.35;;;9.60;99.90;;;;;;5010148;28;20523;-83
2022/05/25 04:10:22;;;;;;;15.73;11.07;;;9.60;99.90;;;;;;4994007;28;21775;-83
2022/05/25 04:12:49;;;;;;;14.02;10.93;;;9.60;99.90;;;;;;4993797;28;20393;-84
2022/05/25 04:15:18;;;;;;;14.85;11.60;;;9.60;99.90;;;;;;5009559;28;20558;-84
2022/05/25 04:17:44;;;;;;;13.38;10.93;;;9.70;99.90;;;;;;5010409;28;20077;-84
2022/05/25 04:20:11;;;;;;;14.35;11.63;;;9.70;99.90;;;;;;4991599;28;20147;-84
2022/05/25 04:22:37;;;;;;;12.63;10.70;;;9.70;99.90;;;;;;5004843;28;20601;-84
2022/05/25 04:25:10;;;;;;;14.00;11.50;;;9.80;99.90;;;;;;5004101;28;20042;-83
2022/05/25 04:27:37;;;;;;;14.90;10.83;;;9.80;99.90;;;;;;5004562;28;21096;-83
2022/05/25 04:30:04;;;;;;;13.90;10.75;;;9.90;99.90;;;;;;4987710;28;20338;-83
2022/05/25 04:32:30;;;;;;;13.63;10.85;;;9.90;99.90;;;;;;5004486;28;20093;-84
2022/05/25 04:34:57;;;;;;;14.88;10.90;;;10.00;99.90;;;;;;5005441;28;20042;-84
2022/05/25 04:40:07;;;;;;;;;;;10.10;99.90;;;;;;5021166;28;20084;-84
2022/05/25 04:42:32;;;;;;;13.32;10.52;;;10.10;99.90;;;;;;5004704;28;19917;-84
2022/05/25 04:45:02;;;;;;;12.35;9.77;;;10.20;99.90;;;;;;5005658;28;20143;-84
2022/05/25 04:47:29;;;;;;;12.13;9.80;;;10.20;99.90;;;;;;4993464;28;20034;-84
2022/05/25 04:49:54;;;;;;;13.57;10.68;;;10.30;99.90;;;;;;5009246;28;20054;-85
2022/05/25 04:52:20;;;;;;;18.42;10.88;;;10.40;99.90;;;;;;4990253;28;20497;-85
2022/05/25 04:54:46;;;;;;;11.98;10.70;;;10.50;99.90;;;;;;4991717;28;20452;-84
2022/05/25 04:57:20;;;;;;;14.57;10.60;;;10.60;99.90;;;;;;4974308;28;20129;-85
2022/05/25 04:59:47;;;;;;;13.05;10.68;;;10.60;99.90;;;;;;4992722;28;20045;-83
2022/05/25 05:02:13;;;;;;;14.68;10.75;;;10.80;99.90;;;;;;5009604;28;20041;-85
2022/05/25 05:04:38;;;;;;;15.15;10.68;;;10.80;99.90;;;;;;5009004;28;20048;-84
2022/05/25 05:07:05;;;;;;;16.45;10.93;;;10.90;99.90;;;;;;5006364;28;20132;-85
2022/05/25 05:09:35;;;;;;;13.32;10.00;;;11.00;99.90;;;;;;5009262;28;20034;-84
2022/05/25 05:12:01;;;;;;;12.00;9.90;;;11.00;99.90;;;;;;5010442;28;20070;-85
2022/05/25 05:14:28;;;;;;;13.07;10.60;;;11.10;99.90;;;;;;5003775;28;20052;-85
2022/05/25 05:16:58;;;;;;;11.82;9.80;;;11.20;99.90;;;;;;4996184;28;20576;-85
2022/05/25 05:19:24;;;;;;;14.63;10.95;;;11.30;99.90;;;;;;4989510;28;20129;-85
2022/05/25 05:21:51;;;;;;;14.02;10.18;;;11.40;99.90;;;;;;5005099;28;20124;-86
2022/05/25 05:24:17;;;;;;;14.77;10.13;;;11.50;99.90;;;;;;4999469;28;20042;-86
2022/05/25 05:26:42;;;;;;;15.02;10.40;;;11.60;99.90;;;;;;4992074;28;20129;-86
2022/05/25 05:29:09;;;;;;;15.50;10.88;;;11.70;99.90;;;;;;4991711;28;20038;-86
2022/05/25 05:31:34;;;;;;;14.70;10.27;;;11.80;99.90;;;;;;5008936;28;20040;-86
2022/05/25 05:34:00;;;;;;;14.85;10.63;;;11.80;99.90;;;;;;4994064;28;20046;-86
2022/05/25 05:36:36;;;;;;;12.65;10.63;;;12.00;99.90;;;;;;5009995;28;20125;-86
2022/05/25 05:39:05;;;;;;;11.52;9.38;;;12.00;99.90;;;;;;4988511;28;20088;-86
2022/05/25 05:42:05;;;;;;;11.80;10.05;;;12.10;99.90;;;;;;5006509;28;20029;-86
2022/05/25 05:44:41;;;;;;;12.48;9.43;;;12.30;99.90;;;;;;4992089;28;20049;-85
2022/05/25 05:47:12;;;;;;;14.05;9.13;;;12.40;99.90;;;;;;4993913;28;20440;-86
2022/05/25 05:49:40;;;;;;;12.05;9.63;;;12.40;99.90;;;;;;4988630;28;20117;-86
2022/05/25 05:52:06;;;;;;;13.80;10.88;;;12.50;99.90;;;;;;4993137;28;20042;-86
2022/05/25 05:54:32;;;;;;;13.77;9.68;;;12.60;99.90;;;;;;5007445;28;20578;-85
2022/05/25 05:56:58;;;;;;;13.10;9.93;;;12.70;99.90;;;;;;5008008;28;20132;-86
2022/05/25 05:59:24;;;;;;;12.55;9.82;;;12.80;99.90;;;;;;4991653;28;20657;-86
2022/05/25 06:01:49;;;;;;;13.07;9.38;;;12.90;99.90;;;;;;5011099;28;20156;-86
2022/05/25 06:04:16;;;;;;;13.90;9.52;;;13.00;99.90;;;;;;5008080;28;20133;-85
2022/05/25 06:06:42;;;;;;;13.35;9.40;;;13.10;99.90;;;;;;5007782;28;20851;-85
2022/05/25 06:09:07;;;;;;;11.93;9.35;;;13.10;99.90;;;;;;5003398;28;20113;-86
2022/05/25 06:11:38;;;;;;;11.95;8.77;;;13.40;99.90;;;;;;4987832;28;20515;-87
2022/05/25 06:14:03;;;;;;;10.48;8.90;;;13.20;99.90;;;;;;5006883;28;20045;-86
2022/05/25 06:19:26;;;;;;;;;;;13.50;99.90;;;;;;5006321;28;21546;-87
2022/05/25 06:22:13;;;;;;;9.52;7.78;;;13.60;99.90;;;;;;4988255;28;19925;-86
2022/05/25 06:24:42;;;;;;;12.93;8.52;;;13.70;99.90;;;;;;5005216;28;20042;-85
2022/05/25 06:27:09;;;;;;;11.70;8.45;;;13.70;99.90;;;;;;5008933;28;20065;-87
2022/05/25 06:29:36;;;;;;;11.93;7.82;;;13.80;99.90;;;;;;5006367;28;20037;-87
2022/05/25 06:32:02;;;;;;;15.10;8.25;;;13.90;99.90;;;;;;5019769;28;20037;-86
2022/05/25 06:34:28;;;;;;;11.25;7.50;;;14.00;99.90;;;;;;5009148;28;20038;-86
2022/05/25 06:36:53;;;;;;;8.70;6.82;;;14.10;99.90;;;;;;4995722;28;20049;-86
2022/05/25 06:39:19;;;;;;;12.82;7.65;;;14.20;99.90;;;;;;5010837;28;20034;-86
2022/05/25 06:41:44;;;;;;;12.82;7.03;;;14.30;99.90;;;;;;5013925;28;20037;-83
2022/05/25 06:44:10;;;;;;;12.88;8.13;;;14.40;99.90;;;;;;5010994;28;20046;-86
2022/05/25 06:46:35;;;;;;;10.27;7.07;;;14.60;99.90;;;;;;5003878;28;20034;-87
2022/05/25 06:49:01;;;;;;;13.80;7.10;;;14.60;99.90;;;;;;4991112;28;20537;-86
2022/05/25 06:51:32;;;;;;;12.13;7.30;;;14.70;99.90;;;;;;5011763;28;20038;-86
2022/05/25 06:53:58;;;;;;;9.75;6.88;;;14.80;99.90;;;;;;4991123;28;20080;-85
2022/05/25 06:56:25;;;;;;;10.85;7.03;;;15.00;99.90;;;;;;5004665;28;20061;-87
2022/05/25 06:58:52;;;;;;;11.30;6.80;;;15.00;99.90;;;;;;5004862;28;20034;-86
2022/05/25 07:01:18;;;;;;;11.48;6.82;;;14.90;99.90;;;;;;4982544;28;20034;-88
2022/05/25 07:03:44;;;;;;;9.02;6.78;;;15.00;99.90;;;;;;5007357;28;20522;-86
2022/05/25 07:06:11;;;;;;;11.10;6.85;;;15.10;99.90;;;;;;5009794;28;20117;-86
2022/05/25 07:08:37;;;;;;;9.77;6.78;;;15.20;99.90;;;;;;5009850;28;20038;-87
2022/05/25 07:11:04;;;;;;;9.02;6.40;;;15.20;99.90;;;;;;5004571;28;20559;-86
2022/05/25 07:13:30;;;;;;;9.45;6.07;;;15.30;99.90;;;;;;4990725;28;20120;-85
2022/05/25 07:16:02;;;;;;;9.32;6.38;;;15.40;99.90;;;;;;4988502;28;20033;-86
2022/05/25 07:18:28;;;;;;;10.90;6.18;;;15.40;99.90;;;;;;4990995;28;20044;-86
2022/05/25 07:21:01;;;;;;;10.07;6.50;;;15.50;99.90;;;;;;5003349;28;20045;-85
2022/05/25 07:23:27;;;;;;;9.27;6.30;;;15.60;99.90;;;;;;5008567;28;20045;-85
2022/05/25 07:25:53;;;;;;;10.88;6.45;;;15.80;99.90;;;;;;5004817;28;20061;-85
2022/05/25 07:28:19;;;;;;;9.23;6.20;;;15.80;99.90;;;;;;5003158;28;20026;-86
2022/05/25 07:30:46;;;;;;;9.60;6.13;;;15.80;99.90;;;;;;4986173;28;20116;-86
2022/05/25 07:33:12;;;;;;;9.23;5.90;;;16.00;99.90;;;;;;4992842;28;20046;-85
2022/05/25 07:35:38;;;;;;;8.05;5.40;;;16.20;99.90;;;;;;4989267;28;20041;-86
2022/05/25 07:38:04;;;;;;;10.43;6.50;;;16.30;99.90;;;;;;5004700;28;20427;-86
2022/05/25 07:40:35;;;;;;;8.55;5.75;;;16.30;99.90;;;;;;5006898;28;20157;-85
2022/05/25 07:43:11;;;;;;;8.75;5.53;;;16.40;99.90;;;;;;5008018;28;20496;-84
2022/05/25 07:45:36;;;;;;;21.17;6.57;;;16.50;99.90;;;;;;5005476;28;20515;-85
2022/05/25 07:48:02;;;;;;;8.32;5.70;;;16.70;99.90;;;;;;5005879;28;20065;-86
2022/05/25 07:50:28;;;;;;;6.07;5.00;;;16.90;99.90;;;;;;4986513;28;20041;-85
2022/05/25 07:52:57;;;;;;;6.40;4.75;;;17.00;99.90;;;;;;5003191;28;20037;-85
2022/05/25 07:55:22;;;;;;;6.07;5.40;;;16.90;99.90;;;;;;4989285;28;20092;-85
2022/05/25 07:57:48;;;;;;;6.97;5.80;;;17.10;99.90;;;;;;4992403;28;20041;-85
2022/05/25 08:00:16;;;;;;;10.65;5.53;;;17.10;99.90;;;;;;4994873;28;20448;-85
2022/05/25 08:05:43;;;;;;;7.10;5.43;;;17.10;99.90;;;;;;5010909;28;20050;-86
2022/05/25 08:08:17;;;;;;;8.38;5.32;;;17.30;99.90;;;;;;4993725;28;20073;-85
2022/05/25 08:10:47;;;;;;;6.75;5.15;;;17.40;99.90;;;;;;4990467;28;20045;-85
2022/05/25 08:13:17;;;;;;;8.23;5.85;;;17.40;99.90;;;;;;5005265;28;20037;-84
2022/05/25 08:15:43;;;;;;;8.38;5.30;;;17.50;99.90;;;;;;5006062;28;20551;-85
2022/05/25 08:18:10;;;;;;;9.75;5.93;;;17.60;99.90;;;;;;5005354;28;20042;-85
2022/05/25 08:20:36;;;;;;;7.03;5.28;;;17.50;99.90;;;;;;5005372;28;20105;-85
2022/05/25 08:23:10;;;;;;;8.02;4.53;;;17.50;99.90;;;;;;4989781;28;20046;-84
2022/05/25 08:25:36;;;;;;;6.50;4.13;;;17.40;99.90;;;;;;5005113;28;20041;-85
2022/05/25 08:28:03;;;;;;;7.82;4.28;;;17.30;99.90;;;;;;5004604;28;20033;-86
2022/05/25 08:30:29;;;;;;;5.22;3.95;;;17.10;99.90;;;;;;4987923;28;20111;-86
2022/05/25 08:32:55;;;;;;;6.60;3.45;;;17.20;99.90;;;;;;5002771;28;20049;-86
2022/05/25 08:35:21;;;;;;;5.30;3.80;;;17.20;99.90;;;;;;5004792;28;20096;-86
2022/05/25 08:37:46;;;;;;;6.25;3.95;;;17.20;99.90;;;;;;5004109;28;20038;-84
2022/05/25 08:40:17;;;;;;;5.05;3.83;;;17.30;99.90;;;;;;5004184;28;20509;-85
2022/05/25 08:43:07;;;;;;;8.15;3.78;;;17.30;99.90;;;;;;5019609;28;20092;-85
2022/05/25 08:45:43;;;;;;;4.85;3.67;;;17.50;99.90;;;;;;5024319;28;20041;-86
2022/05/25 08:48:12;;;;;;;4.60;3.30;;;17.70;99.90;;;;;;5004450;28;20037;-85
2022/05/25 08:50:38;;;;;;;7.78;3.63;;;17.70;99.90;;;;;;4992461;28;20030;-87
2022/05/25 08:53:08;;;;;;;5.40;3.97;;;17.70;99.90;;;;;;4993239;28;20065;-84
2022/05/25 08:56:16;;;;;;;3.90;3.42;;;17.70;99.90;;;;;;5002665;28;20042;-87
2022/05/25 08:58:47;;;;;;;5.22;3.50;;;17.80;99.90;;;;;;5004311;28;20118;-85
2022/05/25 09:01:41;;;;;;;5.95;3.50;;;17.90;99.90;;;;;;5008103;28;20113;-86
2022/05/25 09:04:32;;;;;;;5.32;3.80;;;18.00;99.90;;;;;;5001927;28;20125;-86
2022/05/25 09:07:08;;;;;;;4.53;3.15;;;18.00;99.90;;;;;;4985014;28;20054;-85
2022/05/25 09:09:46;;;;;;;7.40;3.17;;;17.90;99.90;;;;;;5006013;28;20715;-85
2022/05/25 09:12:27;;;;;;;4.90;3.50;;;18.00;99.90;;;;;;4990025;28;20649;-86
2022/05/25 09:15:11;;;;;;;7.50;3.60;;;17.90;99.90;;;;;;4990420;28;20512;-88
2022/05/25 09:17:51;;;;;;;4.47;3.20;;;17.90;99.90;;;;;;5010801;28;20030;-86
2022/05/25 09:20:31;;;;;;;5.78;3.30;;;18.00;99.90;;;;;;5010060;28;20157;-87
2022/05/25 09:22:58;;;;;;;5.70;3.00;;;17.90;99.90;;;;;;4994682;28;20121;-87
2022/05/25 09:25:24;;;;;;;4.25;2.83;;;18.00;99.90;;;;;;5009582;28;20053;-87
2022/05/25 09:28:12;;;;;;;5.05;3.08;;;18.10;99.90;;;;;;5006936;28;20064;-87
2022/05/25 09:30:42;;;;;;;4.43;2.25;;;18.20;99.90;;;;;;5004254;28;20045;-86
2022/05/25 09:33:32;;;;;;;4.05;2.80;;;18.20;99.90;;;;;;5009474;28;20049;-87
2022/05/25 09:36:25;;;;;;;4.60;2.88;;;18.10;99.90;;;;;;4990225;28;20042;-85
2022/05/25 09:39:11;;;;;;;5.05;3.15;;;17.90;99.90;;;;;;5004057;28;20050;-87
2022/05/25 09:41:41;;;;;;;5.65;2.90;;;17.80;99.90;;;;;;4988537;28;20062;-88
2022/05/25 09:44:11;;;;;;;4.43;3.00;;;17.90;99.90;;;;;;5011892;28;20050;-89
2022/05/25 09:46:42;;;;;;;4.90;3.38;;;18.00;99.90;;;;;;5013030;28;20045;-88
2022/05/25 09:49:14;;;;;;;3.83;2.83;;;18.00;99.90;;;;;;5012040;28;20042;-87
2022/05/25 09:51:53;;;;;;;4.75;3.58;;;18.10;99.90;;;;;;4994677;28;20045;-87
2022/05/25 09:54:28;;;;;;;4.97;3.60;;;18.20;99.90;;;;;;4995748;28;20168;-86
2022/05/25 09:57:15;;;;;;;6.82;3.38;;;18.20;99.90;;;;;;4995864;28;20069;-87
2022/05/25 10:00:03;;;;;;;4.60;3.22;;;18.10;99.90;;;;;;4997020;28;20030;-88
2022/05/25 10:02:35;;;;;;;4.10;3.05;;;18.10;99.90;;;;;;5003257;28;20050;-87
2022/05/25 10:05:25;;;;;;;3.50;3.20;;;18.00;99.90;;;;;;5013128;28;20512;-89
2022/05/25 10:07:55;;;;;;;5.68;3.20;;;17.90;99.90;;;;;;4997764;28;20049;-89
2022/05/25 10:10:33;;;;;;;6.05;3.17;;;17.80;99.90;;;;;;4996964;28;20041;-89
2022/05/25 10:13:04;;;;;;;4.20;3.00;;;17.70;99.90;;;;;;4996671;28;20129;-88
2022/05/25 10:15:36;;;;;;;5.35;3.60;;;17.70;99.90;;;;;;4996539;28;20049;-88
2022/05/25 10:18:04;;;;;;;4.68;3.40;;;17.60;99.90;;;;;;5013744;28;20038;-89
2022/05/25 10:20:50;;;;;;;5.90;3.47;;;17.50;99.90;;;;;;5013227;28;20049;-87
2022/05/25 10:23:23;;;;;;;5.95;3.30;;;17.50;99.90;;;;;;5012569;28;20034;-88
2022/05/25 10:26:19;;;;;;;3.83;3.00;;;17.30;99.90;;;;;;4997050;28;20049;-89
2022/05/25 10:28:52;;;;;;;5.82;3.22;;;17.20;99.90;;;;;;4997221;28;20054;-89
2022/05/25 10:37:29;;;;;;;5.50;3.63;;;17.20;99.90;;;;;;5003928;28;20121;-89
2022/05/25 10:39:55;;;;;;;5.35;3.30;;;17.10;99.90;;;;;;5008479;28;20042;-88
2022/05/25 10:42:31;;;;;;;5.85;4.10;;;17.20;99.90;;;;;;4994117;28;20068;-89
2022/05/25 10:45:07;;;;;;;6.40;3.72;;;17.10;99.90;;;;;;4994726;28;20101;-89
2022/05/25 10:50:27;;;;;;;5.35;3.97;;;17.00;99.90;;;;;;5012088;28;20048;-87
2022/05/25 10:53:07;;;;;;;4.43;3.60;;;16.90;99.90;;;;;;5011626;28;20121;-89
2022/05/25 10:56:02;;;;;;;6.10;3.72;;;16.80;99.90;;;;;;4995294;28;20038;-88
2022/05/25 10:58:54;;;;;;;4.43;3.55;;;16.70;99.90;;;;;;4989461;28;20046;-88
2022/05/25 11:01:59;;;;;;;5.82;3.45;;;16.50;99.90;;;;;;5010754;28;20519;-89
2022/05/25 11:04:52;;;;;;;11.82;4.05;;;16.50;99.90;;;;;;4990762;28;20049;-86
2022/05/25 11:07:21;;;;;;;5.75;3.92;;;16.30;99.90;;;;;;4986457;28;20045;-86
2022/05/25 11:10:11;;;;;;;7.43;3.97;;;16.10;99.90;;;;;;5010030;28;20049;-85
2022/05/25 11:13:01;;;;;;;8.80;4.35;;;16.00;99.90;;;;;;5008970;28;20045;-87
2022/05/25 11:15:43;;;;;;;6.38;4.18;;;16.10;99.90;;;;;;5010408;28;20038;-86
2022/05/25 11:18:32;;;;;;;6.43;4.78;;;16.30;99.90;;;;;;4995035;28;20408;-88
2022/05/25 11:21:17;;;;;;;5.95;5.13;;;16.50;99.90;;;;;;5010811;28;20038;-87
2022/05/25 11:24:07;;;;;;;11.05;6.90;;;16.50;99.90;;;;;;5009485;28;20046;-87
2022/05/25 11:26:55;;;;;;;10.45;7.10;;;16.30;99.90;;;;;;5023975;28;20060;-85
2022/05/25 11:29:33;;;;;;;7.97;6.45;;;16.10;99.90;;;;;;4992958;28;20108;-85
2022/05/25 11:32:34;;;;;;;8.02;6.60;;;16.30;99.90;;;;;;5008657;28;20049;-86
2022/05/25 11:35:24;;;;;;;7.78;6.85;;;16.80;99.90;;;;;;5012322;28;20049;-85
2022/05/25 11:38:17;;;;;;;9.70;6.25;;;17.30;99.90;;;;;;5003717;28;20050;-85
2022/05/25 11:41:11;;;;;;;7.93;6.40;;;17.80;99.90;;;;;;5008557;28;20121;-85
2022/05/25 11:44:01;;;;;;;6.35;5.30;;;17.90;99.90;;;;;;5004738;28;20065;-86
2022/05/25 11:46:44;;;;;;;6.53;5.18;;;17.80;99.90;;;;;;5002322;28;20049;-87
2022/05/25 11:49:34;;;;;;;7.18;5.97;;;17.90;99.90;;;;;;4987793;28;20057;-88
2022/05/25 11:52:24;;;;;;;7.68;4.32;;;18.60;99.90;;;;;;4986904;28;20041;-87
2022/05/25 11:55:02;;;;;;;6.88;5.43;;;18.80;99.90;;;;;;5006972;28;20046;-84
2022/05/25 11:57:45;;;;;;;8.90;5.55;;;19.00;99.90;;;;;;4993063;28;20037;-86
2022/05/25 12:00:48;;;;;;;11.48;6.50;;;19.10;99.90;;;;;;4988519;28;20411;-88
2022/05/25 12:03:36;;;;;;;7.30;5.50;;;19.00;99.90;;;;;;5002151;28;20042;-86
2022/05/25 12:06:25;;;;;;;5.38;3.10;;;19.00;99.90;;;;;;5003244;28;20050;-88
2022/05/25 12:09:16;;;;;;;7.13;2.80;;;19.00;99.90;;;;;;4992413;28;20500;-89
2022/05/25 12:12:12;;;;;;;4.40;1.75;;;19.00;99.90;;;;;;5008857;28;20076;-89
2022/05/25 12:15:14;;;;;;;4.97;2.10;;;18.90;99.90;;;;;;5003687;28;20054;-86
2022/05/25 12:17:47;;;;;;;7.07;2.60;;;19.10;99.90;;;;;;5009148;28;20050;-89
2022/05/25 12:20:28;;;;;;;5.88;2.97;;;19.00;99.90;;;;;;4994929;28;20069;-87
2022/05/25 12:22:57;;;;;;;5.82;3.30;;;19.10;99.90;;;;;;5003239;28;20042;-89
2022/05/25 12:25:23;;;;;;;4.38;3.17;;;19.00;99.90;;;;;;4986346;28;20041;-90
2022/05/25 12:27:55;;;;;;;5.50;3.20;;;19.10;99.90;;;;;;4995136;28;20049;-88
2022/05/25 12:30:43;;;;;;;6.18;3.22;;;19.10;99.90;;;;;;4998498;28;20041;-90
2022/05/25 12:33:20;;;;;;;8.52;3.00;;;19.40;99.90;;;;;;5014856;28;20045;-89
2022/05/25 12:35:46;;;;;;;5.75;3.00;;;19.50;99.90;;;;;;4997682;28;20129;-89
2022/05/25 12:38:12;;;;;;;6.95;2.80;;;19.10;99.90;;;;;;5010877;28;20121;-89
2022/05/25 12:40:42;;;;;;;5.53;2.40;;;19.20;99.90;;;;;;5005638;28;20385;-89
2022/05/25 12:43:39;;;;;;;6.40;2.40;;;19.10;99.90;;;;;;4996590;28;20041;-90
2022/05/25 12:49:01;;;;;;;4.38;0.80;;;19.10;99.90;;;;;;5007300;28;20416;-87
2022/05/25 12:51:32;;;;;;;7.45;1.00;;;19.10;99.90;;;;;;5014358;28;20408;-88
2022/05/25 12:54:01;;;;;;;5.50;0.90;;;19.20;99.90;;;;;;4999387;28;20042;-87
2022/05/25 12:56:26;;;;;;;3.63;0.60;;;19.30;99.90;;;;;;5009152;28;20038;-87
2022/05/25 12:58:55;;;;;;;5.70;0.85;;;19.50;99.90;;;;;;5011910;28;20038;-84
2022/05/25 13:01:26;;;;;;;3.00;0.95;;;19.30;99.90;;;;;;5005258;28;20038;-87
2022/05/25 13:03:54;;;;;;;5.78;1.00;;;19.20;99.90;;;;;;5013266;28;20038;-87
2022/05/25 13:06:35;;;;;;;4.35;1.23;;;19.40;99.90;;;;;;5010706;28;20592;-87
2022/05/25 13:09:03;;;;;;;5.60;0.95;;;19.80;99.90;;;;;;4994024;28;20042;-88
2022/05/25 13:11:49;;;;;;;3.90;0.90;;;20.20;99.90;;;;;;5007125;28;20121;-89
2022/05/25 13:14:17;;;;;;;5.53;0.80;;;20.20;99.90;;;;;;4994001;28;20069;-85
2022/05/25 13:16:45;;;;;;;3.25;1.00;;;20.00;99.90;;;;;;5011998;28;20045;-87
2022/05/25 13:19:39;;;;;;;4.10;0.80;;;20.40;99.90;;;;;;4988896;28;20042;-87
2022/05/25 13:22:20;;;;;;;4.63;0.90;;;20.70;99.90;;;;;;5018796;28;20436;-85
2022/05/25 13:25:08;;;;;;;4.47;0.93;;;20.40;99.30;;;;;;5004071;28;20065;-87
2022/05/25 13:28:09;;;;;;;1.42;0.65;;;19.90;99.20;;;;;;5025733;28;20049;-86
2022/05/25 13:30:35;;;;;;;5.90;0.90;;;19.60;99.90;;;;;;4995662;28;20046;-86
2022/05/25 13:33:18;;;;;;;5.85;0.85;;;19.50;99.60;;;;;;4996784;28;20184;-88
2022/05/25 13:35:47;;;;;;;4.13;0.80;;;19.70;99.40;;;;;;5012423;28;20041;-87
2022/05/25 13:38:21;;;;;;;3.10;0.65;;;19.60;99.70;;;;;;5004588;28;20038;-87